createdAt,value
2018-04-14T00:01:07.716Z,115.20
2018-04-14T00:03:37.524Z,113.10
2018-04-14T00:06:07.322Z,110.07
2018-04-14T00:08:37.172Z,125.23
2018-04-14T00:11:06.959Z,119.87
2018-04-14T00:13:36.878Z,117.17
2018-04-14T00:16:06.679Z,121.97
2018-04-14T00:18:36.500Z,122.70
2018-04-14T00:21:06.299Z,117.83
2018-04-14T00:23:36.145Z,118.07
2018-04-14T00:26:05.954Z,120.30
2018-04-14T00:28:35.837Z,130.93
2018-04-14T00:31:05.655Z,116.97
2018-04-14T00:33:35.459Z,118.97
2018-04-14T00:36:05.330Z,122.07
2018-04-14T00:38:35.122Z,119.03
2018-04-14T00:41:04.942Z,125.87
2018-04-14T00:43:34.783Z,116.47
2018-04-14T00:46:04.622Z,116.20
2018-04-14T00:48:34.432Z,114.40
2018-04-14T00:51:04.237Z,112.90
2018-04-14T00:53:39.970Z,101.70
2018-04-14T00:56:09.774Z,94.07
2018-04-14T00:58:39.619Z,97.23
2018-04-14T01:01:09.398Z,92.23
2018-04-14T01:03:39.348Z,95.40
2018-04-14T01:06:09.162Z,89.80
2018-04-14T01:08:38.961Z,85.23
2018-04-14T01:11:08.804Z,90.93
2018-04-14T01:13:38.611Z,82.80
2018-04-14T01:16:08.425Z,79.87
2018-04-14T01:18:38.221Z,84.30
2018-04-14T01:21:08.091Z,92.77
2018-04-14T01:23:37.980Z,96.87
2018-04-14T01:26:07.870Z,75.90
2018-04-14T01:28:37.662Z,83.77
2018-04-14T01:31:07.491Z,75.97
2018-04-14T01:33:37.293Z,75.07
2018-04-14T01:36:07.147Z,77.63
2018-04-14T01:38:36.939Z,75.20
2018-04-14T01:41:06.754Z,83.03
2018-04-14T01:43:36.586Z,77.83
2018-04-14T01:46:06.408Z,78.47
2018-04-14T01:48:36.204Z,74.70
2018-04-14T01:51:06.006Z,78.87
2018-04-14T01:53:35.818Z,80.63
2018-04-14T01:56:05.637Z,74.77
2018-04-14T01:58:35.461Z,79.70
2018-04-14T02:01:05.287Z,73.47
2018-04-14T02:03:35.099Z,70.63
2018-04-14T02:06:04.982Z,71.57
2018-04-14T02:08:34.790Z,71.00
2018-04-14T02:11:04.610Z,72.93
2018-04-14T02:13:34.410Z,68.23
2018-04-14T02:16:04.228Z,67.07
2018-04-14T02:18:34.043Z,69.00
2018-04-14T02:21:03.845Z,68.47
2018-04-14T02:23:33.682Z,69.40
2018-04-14T02:26:03.483Z,70.80
2018-04-14T02:28:33.305Z,70.77
2018-04-14T02:31:03.116Z,70.23
2018-04-14T02:33:32.918Z,69.13
2018-04-14T02:36:02.738Z,64.10
2018-04-14T02:38:32.543Z,66.53
2018-04-14T02:41:02.365Z,68.03
2018-04-14T02:43:32.270Z,65.50
2018-04-14T02:46:02.163Z,64.70
2018-04-14T02:48:31.993Z,67.93
2018-04-14T02:51:07.733Z,70.73
2018-04-14T02:53:37.560Z,64.67
2018-04-14T02:56:07.367Z,68.23
2018-04-14T02:58:37.175Z,67.37
2018-04-14T03:01:06.974Z,73.10
2018-04-14T03:03:36.789Z,61.70
2018-04-14T03:06:06.633Z,66.10
2018-04-14T03:08:36.420Z,64.80
2018-04-14T03:11:06.243Z,70.17
2018-04-14T03:13:36.239Z,64.20
2018-04-14T03:16:06.068Z,63.27
2018-04-14T03:18:35.859Z,64.73
2018-04-14T03:21:05.686Z,65.87
2018-04-14T03:23:35.486Z,59.87
2018-04-14T03:26:05.308Z,60.30
2018-04-14T03:28:35.122Z,65.77
2018-04-14T03:31:04.915Z,67.03
2018-04-14T03:33:34.835Z,58.10
2018-04-14T03:36:04.626Z,63.50
2018-04-14T03:38:34.443Z,57.57
2018-04-14T03:41:04.267Z,62.83
2018-04-14T03:43:34.072Z,66.10
2018-04-14T03:46:03.891Z,66.87
2018-04-14T03:48:33.698Z,60.23
2018-04-14T03:51:03.526Z,60.70
2018-04-14T03:53:33.336Z,69.97
2018-04-14T03:56:03.151Z,64.63
2018-04-14T03:58:32.966Z,63.03
2018-04-14T04:01:02.791Z,61.67
2018-04-14T04:03:32.582Z,64.53
2018-04-14T04:06:02.397Z,70.97
2018-04-14T04:08:32.198Z,66.20
2018-04-14T04:11:02.053Z,72.63
2018-04-14T04:13:31.815Z,66.87
2018-04-14T04:16:01.659Z,75.23
2018-04-14T04:18:37.471Z,76.87
2018-04-14T04:21:13.091Z,73.90
2018-04-14T04:23:48.727Z,75.80
2018-04-14T04:26:18.550Z,78.40
2018-04-14T04:28:48.538Z,75.43
2018-04-14T04:31:18.341Z,78.53
2018-04-14T04:33:48.161Z,85.43
2018-04-14T04:36:17.951Z,80.10
2018-04-14T04:38:47.785Z,83.53
2018-04-14T04:41:17.680Z,76.20
2018-04-14T04:43:47.511Z,77.23
2018-04-14T04:46:17.307Z,82.17
2018-04-14T04:48:47.187Z,76.80
2018-04-14T04:51:16.946Z,82.47
2018-04-14T04:53:46.757Z,79.47
2018-04-14T04:56:16.569Z,79.23
2018-04-14T04:58:46.354Z,81.63
2018-04-14T05:01:16.204Z,77.33
2018-04-14T05:03:45.991Z,75.20
2018-04-14T05:06:15.810Z,83.73
2018-04-14T05:08:45.620Z,75.57
2018-04-14T05:11:15.460Z,76.77
2018-04-14T05:13:45.278Z,76.07
2018-04-14T05:16:15.086Z,78.60
2018-04-14T05:18:44.903Z,70.93
2018-04-14T05:21:14.713Z,77.23
2018-04-14T05:23:48.938Z,78.63
2018-04-14T05:26:17.251Z,75.50
2018-04-14T05:28:45.518Z,76.47
2018-04-14T05:31:13.790Z,80.17
2018-04-14T05:33:42.080Z,75.60
2018-04-14T05:36:10.371Z,78.70
2018-04-14T05:38:38.667Z,73.33
2018-04-14T05:41:07.707Z,79.63
2018-04-14T05:43:36.004Z,83.23
2018-04-14T05:46:04.299Z,77.10
2018-04-14T05:48:33.356Z,83.40
2018-04-14T05:51:01.643Z,80.60
2018-04-14T05:53:29.928Z,83.27
2018-04-14T05:55:58.311Z,78.90
2018-04-14T05:58:26.607Z,85.43
2018-04-14T06:00:54.876Z,78.03
2018-04-14T06:03:23.331Z,78.73
2018-04-14T06:05:51.589Z,79.93
2018-04-14T06:08:19.879Z,84.77
2018-04-14T06:10:48.160Z,81.17
2018-04-14T06:13:16.451Z,78.40
2018-04-14T06:15:44.824Z,79.57
2018-04-14T06:18:13.095Z,80.20
2018-04-14T06:20:41.364Z,79.53
2018-04-14T06:23:09.668Z,83.23
2018-04-14T06:25:37.948Z,77.57
2018-04-14T06:28:06.239Z,93.20
2018-04-14T06:30:34.515Z,80.70
2018-04-14T06:33:03.552Z,80.63
2018-04-14T06:35:31.868Z,88.00
2018-04-14T06:38:00.917Z,81.50
2018-04-14T06:40:29.227Z,81.60
2018-04-14T06:42:59.011Z,83.27
2018-04-14T06:45:27.316Z,85.93
2018-04-14T06:47:55.595Z,72.90
2018-04-14T06:50:23.875Z,76.60
2018-04-14T06:52:52.165Z,82.53
2018-04-14T06:55:20.458Z,78.30
2018-04-14T06:57:48.764Z,79.90
2018-04-14T07:00:17.064Z,74.90
2018-04-14T07:02:45.347Z,80.30
2018-04-14T07:05:13.669Z,77.07
2018-04-14T07:07:41.971Z,77.77
2018-04-14T07:10:10.259Z,73.27
2018-04-14T07:12:38.563Z,77.70
2018-04-14T07:15:06.840Z,80.70
2018-04-14T07:17:35.104Z,87.63
2018-04-14T07:20:03.419Z,83.17
2018-04-14T07:22:32.539Z,84.53
2018-04-14T07:25:00.806Z,85.90
2018-04-14T07:27:29.111Z,93.00
2018-04-14T07:29:57.407Z,80.60
2018-04-14T07:32:25.752Z,89.83
2018-04-14T07:34:53.991Z,87.27
2018-04-14T07:37:23.056Z,94.03
2018-04-14T07:39:51.343Z,87.87
2018-04-14T07:42:19.637Z,97.30
2018-04-14T07:44:48.697Z,84.10
2018-04-14T07:47:17.003Z,91.40
2018-04-14T07:49:46.055Z,87.57
2018-04-14T07:52:14.332Z,83.87
2018-04-14T07:54:42.641Z,89.67
2018-04-14T07:57:10.920Z,89.87
2018-04-14T07:59:39.987Z,87.07
2018-04-14T08:02:08.291Z,86.07
2018-04-14T08:04:37.351Z,82.50
2018-04-14T08:07:05.635Z,84.27
2018-04-14T08:09:33.944Z,82.57
2018-04-14T08:12:02.987Z,89.67
2018-04-14T08:14:31.267Z,84.40
2018-04-14T08:16:59.568Z,80.00
2018-04-14T08:19:27.876Z,81.90
2018-04-14T08:21:56.936Z,85.70
2018-04-14T08:24:25.264Z,77.53
2018-04-14T08:26:54.313Z,78.30
2018-04-14T08:29:22.591Z,75.53
2018-04-14T08:31:51.647Z,72.10
2018-04-14T08:34:19.944Z,76.03
2018-04-14T08:36:48.232Z,70.73
2018-04-14T08:39:16.545Z,68.27
2018-04-14T08:41:44.821Z,74.70
2018-04-14T08:44:13.867Z,68.67
2018-04-14T08:46:42.183Z,69.50
2018-04-14T08:49:11.256Z,71.93
2018-04-14T08:51:39.543Z,71.00
2018-04-14T08:54:07.827Z,71.30
2018-04-14T08:56:36.879Z,64.20
2018-04-14T08:59:05.192Z,70.43
2018-04-14T09:01:33.455Z,73.50
2018-04-14T09:04:01.733Z,75.17
2018-04-14T09:06:30.058Z,71.17
2018-04-14T09:08:59.477Z,76.73
2018-04-14T09:11:27.792Z,77.13
2018-04-14T09:13:57.580Z,79.50
2018-04-14T09:16:25.866Z,71.10
2018-04-14T09:18:54.171Z,71.13
2018-04-14T09:21:22.463Z,77.30
2018-04-14T09:23:50.774Z,76.30
2018-04-14T09:26:19.060Z,79.90
2018-04-14T09:28:47.347Z,82.00
2018-04-14T09:31:15.639Z,75.13
2018-04-14T09:33:43.938Z,85.73
2018-04-14T09:36:12.243Z,85.60
2018-04-14T09:38:40.544Z,78.53
2018-04-14T09:41:08.849Z,76.30
2018-04-14T09:43:37.139Z,85.97
2018-04-14T09:46:05.463Z,86.90
2018-04-14T09:48:33.755Z,85.17
2018-04-14T09:51:02.092Z,75.87
2018-04-14T09:53:30.379Z,81.53
2018-04-14T09:55:58.673Z,84.23
2018-04-14T09:58:26.971Z,76.70
2018-04-14T10:01:01.149Z,84.67
2018-04-14T10:03:29.465Z,81.70
2018-04-14T10:05:57.764Z,76.23
2018-04-14T10:08:26.057Z,79.00
2018-04-14T10:10:54.375Z,71.97
2018-04-14T10:13:24.387Z,75.00
2018-04-14T10:15:52.692Z,71.93
2018-04-14T10:18:21.775Z,76.53
2018-04-14T10:20:50.103Z,76.17
2018-04-14T10:23:19.138Z,68.53
2018-04-14T10:25:47.456Z,74.57
2018-04-14T10:28:16.515Z,65.17
2018-04-14T10:30:44.827Z,67.93
2018-04-14T10:33:13.105Z,67.60
2018-04-14T10:35:41.412Z,59.90
2018-04-14T10:38:09.734Z,63.20
2018-04-14T10:40:37.987Z,63.97
2018-04-14T10:43:06.279Z,62.13
2018-04-14T10:45:34.588Z,62.67
2018-04-14T10:48:02.935Z,56.63
2018-04-14T10:50:31.216Z,61.20
2018-04-14T10:53:00.337Z,59.63
2018-04-14T10:55:28.599Z,61.67
2018-04-14T10:57:56.913Z,56.17
2018-04-14T11:00:25.180Z,55.27
2018-04-14T11:02:53.495Z,62.47
2018-04-14T11:05:21.776Z,61.80
2018-04-14T11:07:50.068Z,53.80
2018-04-14T11:10:18.380Z,61.93
2018-04-14T11:12:47.445Z,58.93
2018-04-14T11:15:15.751Z,62.57
2018-04-14T11:17:44.788Z,56.80
2018-04-14T11:20:13.103Z,56.13
2018-04-14T11:22:41.425Z,53.07
2018-04-14T11:25:10.460Z,56.63
2018-04-14T11:27:38.728Z,53.83
2018-04-14T11:30:07.030Z,54.77
2018-04-14T11:32:35.329Z,52.10
2018-04-14T11:35:03.617Z,51.40
2018-04-14T11:37:31.932Z,50.17
2018-04-14T11:40:00.220Z,51.80
2018-04-14T11:42:28.503Z,48.33
2018-04-14T11:44:56.792Z,43.93
2018-04-14T11:47:25.852Z,45.07
2018-04-14T11:49:54.146Z,50.10
2018-04-14T11:52:22.455Z,51.10
2018-04-14T11:54:51.537Z,46.27
2018-04-14T11:57:19.818Z,42.10
2018-04-14T11:59:48.897Z,48.53
2018-04-14T12:02:18.025Z,45.97
2018-04-14T12:04:46.338Z,44.10
2018-04-14T12:07:14.708Z,42.43
2018-04-14T12:09:43.863Z,40.27
2018-04-14T12:12:12.913Z,41.90
2018-04-14T12:14:41.186Z,43.67
2018-04-14T12:17:09.480Z,39.80
2018-04-14T12:19:37.743Z,43.43
2018-04-14T12:22:06.040Z,38.93
2018-04-14T12:24:34.333Z,38.20
2018-04-14T12:27:02.620Z,36.70
2018-04-14T12:29:31.695Z,38.50
2018-04-14T12:31:59.979Z,35.63
2018-04-14T12:34:29.044Z,37.50
2018-04-14T12:36:57.436Z,37.43
2018-04-14T12:39:25.720Z,34.33
2018-04-14T12:41:54.015Z,38.33
2018-04-14T12:44:22.294Z,38.63
2018-04-14T12:46:51.370Z,33.60
2018-04-14T12:49:19.647Z,37.87
2018-04-14T12:51:47.942Z,35.70
2018-04-14T12:54:16.204Z,35.67
2018-04-14T12:56:45.306Z,35.17
2018-04-14T12:59:14.348Z,36.17
2018-04-14T13:01:42.640Z,39.40
2018-04-14T13:04:10.967Z,41.30
2018-04-14T13:06:40.016Z,37.87
2018-04-14T13:09:08.339Z,35.73
2018-04-14T13:11:37.384Z,46.13
2018-04-14T13:14:05.679Z,36.37
2018-04-14T13:16:33.979Z,38.47
2018-04-14T13:19:03.064Z,39.20
2018-04-14T13:21:32.127Z,40.43
2018-04-14T13:24:00.441Z,41.97
2018-04-14T13:26:28.720Z,37.47
2018-04-14T13:28:57.764Z,36.47
2018-04-14T13:31:26.084Z,37.43
2018-04-14T13:33:55.131Z,41.00
2018-04-14T13:36:23.469Z,38.60
2018-04-14T13:38:52.491Z,37.60
2018-04-14T13:41:20.796Z,37.50
2018-04-14T13:43:49.089Z,34.93
2018-04-14T13:46:17.369Z,39.93
2018-04-14T13:48:45.661Z,38.27
2018-04-14T13:51:14.746Z,37.90
2018-04-14T13:53:43.020Z,36.63
2018-04-14T13:56:11.353Z,33.20
2018-04-14T13:58:39.644Z,37.83
2018-04-14T14:01:07.928Z,35.60
2018-04-14T14:03:36.201Z,35.67
2018-04-14T14:06:04.500Z,35.87
2018-04-14T14:08:33.573Z,36.73
2018-04-14T14:11:01.862Z,37.07
2018-04-14T14:13:30.156Z,40.10
2018-04-14T14:15:58.505Z,39.27
2018-04-14T14:18:26.886Z,38.80
2018-04-14T14:20:55.151Z,36.73
2018-04-14T14:23:23.461Z,37.30
2018-04-14T14:25:51.731Z,44.17
2018-04-14T14:28:20.003Z,38.57
2018-04-14T14:30:48.307Z,38.63
2018-04-14T14:33:16.741Z,37.80
2018-04-14T14:35:45.019Z,39.17
2018-04-14T14:38:13.403Z,34.90
2018-04-14T14:40:42.479Z,37.80
2018-04-14T14:43:10.767Z,39.87
2018-04-14T14:45:39.075Z,38.10
2018-04-14T14:48:08.139Z,37.17
2018-04-14T14:50:36.427Z,36.27
2018-04-14T14:53:04.737Z,35.40
2018-04-14T14:55:33.789Z,35.27
2018-04-14T14:58:02.172Z,37.10
2018-04-14T15:00:31.288Z,36.00
2018-04-14T15:02:59.560Z,38.33
2018-04-14T15:05:27.844Z,35.07
2018-04-14T15:07:56.927Z,39.23
2018-04-14T15:10:25.209Z,38.53
2018-04-14T15:12:53.500Z,35.77
2018-04-14T15:15:22.547Z,37.20
2018-04-14T15:17:50.851Z,34.07
2018-04-14T15:20:19.156Z,35.20
2018-04-14T15:22:48.231Z,38.90
2018-04-14T15:25:17.285Z,35.40
2018-04-14T15:27:45.611Z,38.20
2018-04-14T15:30:13.913Z,37.90
2018-04-14T15:32:42.956Z,38.73
2018-04-14T15:35:11.255Z,36.10
2018-04-14T15:37:39.547Z,34.53
2018-04-14T15:40:07.855Z,36.37
2018-04-14T15:42:36.159Z,35.23
2018-04-14T15:45:04.450Z,34.50
2018-04-14T15:47:32.740Z,36.93
2018-04-14T15:50:01.839Z,37.40
2018-04-14T15:52:30.892Z,36.17
2018-04-14T15:54:59.181Z,35.53
2018-04-14T15:57:27.512Z,35.43
2018-04-14T15:59:55.790Z,36.20
2018-04-14T16:02:24.099Z,38.70
2018-04-14T16:04:52.370Z,37.40
2018-04-14T16:07:20.697Z,36.27
2018-04-14T16:09:49.744Z,36.83
2018-04-14T16:12:19.576Z,35.20
2018-04-14T16:14:47.896Z,36.57
2018-04-14T16:17:16.227Z,36.60
2018-04-14T16:19:45.303Z,34.00
2018-04-14T16:22:13.576Z,30.83
2018-04-14T16:24:41.865Z,32.00
2018-04-14T16:27:10.135Z,30.53
2018-04-14T16:29:38.422Z,30.90
2018-04-14T16:32:06.847Z,30.97
2018-04-14T16:34:35.233Z,28.43
2018-04-14T16:37:03.532Z,31.70
2018-04-14T16:39:31.822Z,28.13
2018-04-14T16:42:00.105Z,29.23
2018-04-14T16:44:28.402Z,29.33
2018-04-14T16:46:57.469Z,27.77
2018-04-14T16:49:25.840Z,29.17
2018-04-14T16:51:54.040Z,27.83
2018-04-14T16:54:22.315Z,30.60
2018-04-14T16:56:50.629Z,28.63
2018-04-14T16:59:18.943Z,33.60
2018-04-14T17:01:47.991Z,30.10
2018-04-14T17:04:16.305Z,30.63
2018-04-14T17:06:44.600Z,30.70
2018-04-14T17:09:12.906Z,33.83
2018-04-14T17:11:41.226Z,33.13
2018-04-14T17:14:09.548Z,31.53
2018-04-14T17:16:37.807Z,34.47
2018-04-14T17:19:06.103Z,33.67
2018-04-14T17:21:34.412Z,29.93
2018-04-14T17:24:02.720Z,36.77
2018-04-14T17:26:30.983Z,36.10
2018-04-14T17:28:59.250Z,33.33
2018-04-14T17:31:28.296Z,32.90
2018-04-14T17:33:56.616Z,30.23
2018-04-14T17:36:26.589Z,31.43
2018-04-14T17:38:54.876Z,30.23
2018-04-14T17:41:23.939Z,31.63
2018-04-14T17:43:52.318Z,31.93
2018-04-14T17:46:20.616Z,34.27
2018-04-14T17:48:48.929Z,36.80
2018-04-14T17:51:17.223Z,33.43
2018-04-14T17:53:45.525Z,31.57
2018-04-14T17:56:13.785Z,35.60
2018-04-14T17:58:42.904Z,34.80
2018-04-14T18:01:11.227Z,38.93
2018-04-14T18:03:40.283Z,33.47
2018-04-14T18:06:08.553Z,31.57
2018-04-14T18:08:36.844Z,36.30
2018-04-14T18:11:05.144Z,39.20
2018-04-14T18:13:34.213Z,37.93
2018-04-14T18:16:02.513Z,40.47
2018-04-14T18:18:30.794Z,38.13
2018-04-14T18:20:59.845Z,38.33
2018-04-14T18:23:28.147Z,38.80
2018-04-14T18:25:56.511Z,39.80
2018-04-14T18:28:24.832Z,40.33
2018-04-14T18:30:53.608Z,39.73
2018-04-14T18:33:22.655Z,41.13
2018-04-14T18:35:50.964Z,36.80
2018-04-14T18:38:20.052Z,44.40
2018-04-14T18:40:48.343Z,41.70
2018-04-14T18:43:16.631Z,41.17
2018-04-14T18:45:45.704Z,45.43
2018-04-14T18:48:13.996Z,37.53
2018-04-14T18:50:43.043Z,43.00
2018-04-14T18:53:11.334Z,39.87
2018-04-14T18:55:39.639Z,44.97
2018-04-14T18:58:08.699Z,41.67
2018-04-14T19:00:36.999Z,50.40
2018-04-14T19:03:06.893Z,41.27
2018-04-14T19:05:35.175Z,46.27
2018-04-14T19:08:04.563Z,44.07
2018-04-14T19:10:32.895Z,45.70
2018-04-14T19:13:01.216Z,49.80
2018-04-14T19:15:29.476Z,45.40
2018-04-14T19:17:57.841Z,39.33
2018-04-14T19:20:26.878Z,52.27
2018-04-14T19:22:55.170Z,41.47
2018-04-14T19:25:24.238Z,45.07
2018-04-14T19:27:52.573Z,47.47
2018-04-14T19:30:21.601Z,48.97
2018-04-14T19:32:50.734Z,48.50
2018-04-14T19:35:19.798Z,44.30
2018-04-14T19:37:48.178Z,50.97
2018-04-14T19:40:16.376Z,50.23
2018-04-14T19:42:45.455Z,47.77
2018-04-14T19:45:15.302Z,51.80
2018-04-14T19:47:44.345Z,52.00
2018-04-14T19:50:12.632Z,54.13
2018-04-14T19:52:40.895Z,49.27
2018-04-14T19:55:09.196Z,51.60
2018-04-14T19:57:37.747Z,45.33
2018-04-14T20:00:06.047Z,53.60
2018-04-14T20:02:34.333Z,52.00
2018-04-14T20:05:02.643Z,50.30
2018-04-14T20:07:30.950Z,55.30
2018-04-14T20:09:59.282Z,52.87
2018-04-14T20:12:28.351Z,47.60
2018-04-14T20:14:57.579Z,48.43
2018-04-14T20:17:25.889Z,56.23
2018-04-14T20:19:54.349Z,50.47
2018-04-14T20:22:22.639Z,56.67
2018-04-14T20:24:50.943Z,52.13
2018-04-14T20:27:19.228Z,48.70
2018-04-14T20:29:47.529Z,54.73
2018-04-14T20:32:15.814Z,49.63
2018-04-14T20:34:44.121Z,51.73
2018-04-14T20:37:12.442Z,51.23
2018-04-14T20:39:40.710Z,46.23
2018-04-14T20:42:08.995Z,53.17
2018-04-14T20:44:37.306Z,52.50
2018-04-14T20:47:06.363Z,51.00
2018-04-14T20:49:34.671Z,47.90
2018-04-14T20:52:03.715Z,50.80
2018-04-14T20:54:32.020Z,55.10
2018-04-14T20:57:00.961Z,50.60
2018-04-14T20:59:29.247Z,51.50
2018-04-14T21:01:57.710Z,54.13
2018-04-14T21:04:26.738Z,53.23
2018-04-14T21:06:55.003Z,48.87
2018-04-14T21:09:23.302Z,49.97
2018-04-14T21:11:52.404Z,51.13
2018-04-14T21:14:22.323Z,49.10
2018-04-14T21:16:50.595Z,51.43
2018-04-14T21:19:18.884Z,56.33
2018-04-14T21:21:47.944Z,47.53
2018-04-14T21:24:16.248Z,52.80
2018-04-14T21:26:45.345Z,52.83
2018-04-14T21:29:13.604Z,53.07
2018-04-14T21:31:41.895Z,54.57
2018-04-14T21:34:10.159Z,51.40
2018-04-14T21:36:38.485Z,54.90
2018-04-14T21:39:07.533Z,53.80
2018-04-14T21:41:35.815Z,52.83
2018-04-14T21:44:04.123Z,54.40
2018-04-14T21:46:33.162Z,53.27
2018-04-14T21:49:01.686Z,46.53
2018-04-14T21:51:30.736Z,48.20
2018-04-14T21:53:59.028Z,47.53
2018-04-14T21:56:27.331Z,52.00
2018-04-14T21:58:55.608Z,50.53
2018-04-14T22:01:23.896Z,49.97
2018-04-14T22:03:52.938Z,49.63
2018-04-14T22:06:21.251Z,48.33
2018-04-14T22:08:50.307Z,48.13
2018-04-14T22:11:19.396Z,48.90
2018-04-14T22:13:47.712Z,50.67
2018-04-14T22:16:16.000Z,58.53
2018-04-14T22:18:44.295Z,47.40
2018-04-14T22:21:12.583Z,48.07
2018-04-14T22:23:40.887Z,53.40
2018-04-14T22:26:09.195Z,55.97
2018-04-14T22:28:37.479Z,51.60
2018-04-14T22:31:06.548Z,49.17
2018-04-14T22:33:34.849Z,57.40
2018-04-14T22:36:03.165Z,55.30
2018-04-14T22:38:31.448Z,53.10
2018-04-14T22:40:59.735Z,56.63
2018-04-14T22:43:28.030Z,54.80
2018-04-14T22:45:56.434Z,51.60
2018-04-14T22:48:24.730Z,58.63
2018-04-14T22:50:53.033Z,50.33
2018-04-14T22:53:21.451Z,54.93
2018-04-14T22:55:49.727Z,52.13
2018-04-14T22:58:18.843Z,58.63
2018-04-14T23:00:47.128Z,49.93
2018-04-14T23:03:16.167Z,50.03
2018-04-14T23:05:44.485Z,51.17
2018-04-14T23:08:12.751Z,59.13
2018-04-14T23:10:41.036Z,52.53
2018-04-14T23:13:10.088Z,54.50
2018-04-14T23:15:38.396Z,55.13
2018-04-14T23:18:06.687Z,56.03
2018-04-14T23:20:35.791Z,57.20
2018-04-14T23:23:04.271Z,57.67
2018-04-14T23:25:32.620Z,54.60
2018-04-14T23:28:01.711Z,53.63
2018-04-14T23:30:30.009Z,57.03
2018-04-14T23:32:59.117Z,57.50
2018-04-14T23:35:27.379Z,56.93
2018-04-14T23:37:55.746Z,55.17
2018-04-14T23:40:24.067Z,55.70
2018-04-14T23:42:52.345Z,57.67
2018-04-14T23:45:20.643Z,66.03
2018-04-14T23:47:48.960Z,62.20
2018-04-14T23:50:17.246Z,55.43
2018-04-14T23:52:45.547Z,59.90
2018-04-14T23:55:13.860Z,55.93
2018-04-14T23:57:42.151Z,57.07
